sensor_id;sensor_type;location;lat;lon;timestamp;P1;durP1;ratioP1;P2;durP2;ratioP2
8139;SDS011;4111;50.972;7.072;2023-02-24T00:01:50;30.30;;;20.27;;
8139;SDS011;4111;50.972;7.072;2023-02-24T00:04:31;31.80;;;23.50;;
8139;SDS011;4111;50.972;7.072;2023-02-24T00:07:06;34.93;;;24.20;;
8139;SDS011;4111;50.972;7.072;2023-02-24T00:09:35;33.57;;;23.67;;
8139;SDS011;4111;50.972;7.072;2023-02-24T00:12:10;31.23;;;22.03;;
8139;SDS011;4111;50.972;7.072;2023-02-24T00:14:39;27.67;;;20.67;;
8139;SDS011;4111;50.972;7.072;2023-02-24T00:17:08;24.73;;;18.50;;
8139;SDS011;4111;50.972;7.072;2023-02-24T00:19:36;25.60;;;18.47;;
8139;SDS011;4111;50.972;7.072;2023-02-24T00:22:04;23.00;;;17.37;;
8139;SDS011;4111;50.972;7.072;2023-02-24T00:24:32;28.47;;;17.33;;
8139;SDS011;4111;50.972;7.072;2023-02-24T00:27:01;22.73;;;15.63;;
8139;SDS011;4111;50.972;7.072;2023-02-24T00:29:32;21.80;;;14.20;;
8139;SDS011;4111;50.972;7.072;2023-02-24T00:31:59;22.53;;;14.00;;
8139;SDS011;4111;50.972;7.072;2023-02-24T00:34:27;19.30;;;14.40;;
8139;SDS011;4111;50.972;7.072;2023-02-24T00:36:55;22.27;;;16.63;;
8139;SDS011;4111;50.972;7.072;2023-02-24T00:39:23;26.57;;;17.50;;
8139;SDS011;4111;50.972;7.072;2023-02-24T00:41:53;28.27;;;19.13;;
8139;SDS011;4111;50.972;7.072;2023-02-24T00:44:37;27.40;;;19.70;;
8139;SDS011;4111;50.972;7.072;2023-02-24T00:47:06;30.30;;;19.23;;
8139;SDS011;4111;50.972;7.072;2023-02-24T00:49:34;33.97;;;20.07;;
8139;SDS011;4111;50.972;7.072;2023-02-24T00:52:01;29.47;;;19.33;;
8139;SDS011;4111;50.972;7.072;2023-02-24T00:54:29;27.70;;;19.87;;
8139;SDS011;4111;50.972;7.072;2023-02-24T00:56:56;32.60;;;19.27;;
8139;SDS011;4111;50.972;7.072;2023-02-24T00:59:22;30.83;;;20.30;;
8139;SDS011;4111;50.972;7.072;2023-02-24T01:01:49;36.20;;;21.10;;
8139;SDS011;4111;50.972;7.072;2023-02-24T01:04:16;36.97;;;21.83;;
8139;SDS011;4111;50.972;7.072;2023-02-24T01:06:45;33.60;;;21.57;;
8139;SDS011;4111;50.972;7.072;2023-02-24T01:09:14;35.87;;;21.13;;
8139;SDS011;4111;50.972;7.072;2023-02-24T01:11:43;34.87;;;20.90;;
8139;SDS011;4111;50.972;7.072;2023-02-24T01:14:30;32.63;;;20.60;;
8139;SDS011;4111;50.972;7.072;2023-02-24T01:16:58;33.63;;;21.83;;
8139;SDS011;4111;50.972;7.072;2023-02-24T01:19:27;37.93;;;22.03;;
8139;SDS011;4111;50.972;7.072;2023-02-24T01:21:57;37.43;;;21.13;;
8139;SDS011;4111;50.972;7.072;2023-02-24T01:24:27;35.13;;;22.37;;
8139;SDS011;4111;50.972;7.072;2023-02-24T01:26:55;32.53;;;20.20;;
8139;SDS011;4111;50.972;7.072;2023-02-24T01:29:22;33.43;;;21.33;;
8139;SDS011;4111;50.972;7.072;2023-02-24T01:31:48;33.07;;;20.53;;
8139;SDS011;4111;50.972;7.072;2023-02-24T01:34:17;37.13;;;21.17;;
8139;SDS011;4111;50.972;7.072;2023-02-24T01:36:44;32.63;;;20.77;;
8139;SDS011;4111;50.972;7.072;2023-02-24T01:39:11;37.37;;;21.13;;
8139;SDS011;4111;50.972;7.072;2023-02-24T01:41:42;32.83;;;20.37;;
8139;SDS011;4111;50.972;7.072;2023-02-24T01:46:42;33.07;;;20.37;;
8139;SDS011;4111;50.972;7.072;2023-02-24T01:51:46;34.50;;;19.27;;
8139;SDS011;4111;50.972;7.072;2023-02-24T01:54:15;34.40;;;18.40;;
8139;SDS011;4111;50.972;7.072;2023-02-24T01:56:46;35.23;;;18.53;;
8139;SDS011;4111;50.972;7.072;2023-02-24T01:59:15;37.60;;;19.93;;
8139;SDS011;4111;50.972;7.072;2023-02-24T02:01:41;31.37;;;18.00;;
8139;SDS011;4111;50.972;7.072;2023-02-24T02:04:32;38.00;;;19.83;;
8139;SDS011;4111;50.972;7.072;2023-02-24T02:07:08;40.33;;;19.30;;
8139;SDS011;4111;50.972;7.072;2023-02-24T02:09:38;34.90;;;20.07;;
8139;SDS011;4111;50.972;7.072;2023-02-24T02:12:08;38.23;;;21.40;;
8139;SDS011;4111;50.972;7.072;2023-02-24T02:14:36;34.97;;;20.50;;
8139;SDS011;4111;50.972;7.072;2023-02-24T02:37:00;34.93;;;20.53;;
8139;SDS011;4111;50.972;7.072;2023-02-24T02:45:07;31.70;;;19.63;;
8139;SDS011;4111;50.972;7.072;2023-02-24T02:47:52;37.03;;;20.23;;
8139;SDS011;4111;50.972;7.072;2023-02-24T02:53:25;37.97;;;20.43;;
8139;SDS011;4111;50.972;7.072;2023-02-24T02:56:00;39.27;;;19.37;;
8139;SDS011;4111;50.972;7.072;2023-02-24T02:58:29;37.03;;;18.40;;
8139;SDS011;4111;50.972;7.072;2023-02-24T03:00:59;31.90;;;17.17;;
8139;SDS011;4111;50.972;7.072;2023-02-24T03:03:32;28.50;;;16.77;;
8139;SDS011;4111;50.972;7.072;2023-02-24T03:06:04;31.17;;;16.90;;
8139;SDS011;4111;50.972;7.072;2023-02-24T03:08:35;34.20;;;16.60;;
8139;SDS011;4111;50.972;7.072;2023-02-24T03:11:09;28.63;;;15.50;;
8139;SDS011;4111;50.972;7.072;2023-02-24T03:13:40;29.67;;;16.03;;
8139;SDS011;4111;50.972;7.072;2023-02-24T03:16:10;34.10;;;14.70;;
8139;SDS011;4111;50.972;7.072;2023-02-24T03:18:39;31.27;;;14.47;;
8139;SDS011;4111;50.972;7.072;2023-02-24T03:21:17;27.23;;;14.57;;
8139;SDS011;4111;50.972;7.072;2023-02-24T03:23:58;28.97;;;14.03;;
8139;SDS011;4111;50.972;7.072;2023-02-24T03:26:29;24.80;;;12.67;;
8139;SDS011;4111;50.972;7.072;2023-02-24T03:29:08;25.93;;;11.70;;
8139;SDS011;4111;50.972;7.072;2023-02-24T03:31:42;22.30;;;11.60;;
8139;SDS011;4111;50.972;7.072;2023-02-24T03:34:13;25.03;;;11.17;;
8139;SDS011;4111;50.972;7.072;2023-02-24T03:36:46;27.00;;;11.37;;
8139;SDS011;4111;50.972;7.072;2023-02-24T03:39:13;30.50;;;11.63;;
8139;SDS011;4111;50.972;7.072;2023-02-24T03:41:50;31.40;;;11.83;;
8139;SDS011;4111;50.972;7.072;2023-02-24T03:44:21;28.87;;;11.40;;
8139;SDS011;4111;50.972;7.072;2023-02-24T03:46:50;21.97;;;11.73;;
8139;SDS011;4111;50.972;7.072;2023-02-24T03:49:17;28.07;;;11.20;;
8139;SDS011;4111;50.972;7.072;2023-02-24T03:51:53;29.33;;;11.23;;
8139;SDS011;4111;50.972;7.072;2023-02-24T03:54:39;25.93;;;11.10;;
8139;SDS011;4111;50.972;7.072;2023-02-24T04:00:22;24.23;;;10.50;;
8139;SDS011;4111;50.972;7.072;2023-02-24T04:03:13;31.17;;;11.43;;
8139;SDS011;4111;50.972;7.072;2023-02-24T04:05:54;26.43;;;11.43;;
8139;SDS011;4111;50.972;7.072;2023-02-24T04:08:50;24.10;;;12.23;;
8139;SDS011;4111;50.972;7.072;2023-02-24T04:11:23;29.33;;;11.03;;
8139;SDS011;4111;50.972;7.072;2023-02-24T04:14:00;24.37;;;11.13;;
8139;SDS011;4111;50.972;7.072;2023-02-24T04:16:37;23.10;;;10.27;;
8139;SDS011;4111;50.972;7.072;2023-02-24T04:19:12;26.90;;;10.73;;
8139;SDS011;4111;50.972;7.072;2023-02-24T04:21:44;24.97;;;9.87;;
8139;SDS011;4111;50.972;7.072;2023-02-24T04:24:16;22.60;;;11.40;;
8139;SDS011;4111;50.972;7.072;2023-02-24T04:26:46;21.43;;;11.33;;
8139;SDS011;4111;50.972;7.072;2023-02-24T04:29:15;23.17;;;10.43;;
8139;SDS011;4111;50.972;7.072;2023-02-24T04:31:53;26.27;;;10.50;;
8139;SDS011;4111;50.972;7.072;2023-02-24T04:34:27;29.73;;;9.63;;
8139;SDS011;4111;50.972;7.072;2023-02-24T04:36:58;28.00;;;10.20;;
8139;SDS011;4111;50.972;7.072;2023-02-24T04:39:27;25.37;;;9.10;;
8139;SDS011;4111;50.972;7.072;2023-02-24T04:41:55;21.33;;;8.77;;
8139;SDS011;4111;50.972;7.072;2023-02-24T04:44:23;21.97;;;8.87;;
8139;SDS011;4111;50.972;7.072;2023-02-24T04:46:51;20.57;;;8.23;;
8139;SDS011;4111;50.972;7.072;2023-02-24T04:49:18;20.97;;;7.73;;
8139;SDS011;4111;50.972;7.072;2023-02-24T04:51:45;22.33;;;7.10;;
8139;SDS011;4111;50.972;7.072;2023-02-24T04:54:13;29.97;;;8.60;;
8139;SDS011;4111;50.972;7.072;2023-02-24T04:56:42;17.67;;;6.37;;
8139;SDS011;4111;50.972;7.072;2023-02-24T04:59:10;16.63;;;5.67;;
8139;SDS011;4111;50.972;7.072;2023-02-24T05:01:37;18.33;;;6.47;;
8139;SDS011;4111;50.972;7.072;2023-02-24T05:04:05;20.83;;;5.97;;
8139;SDS011;4111;50.972;7.072;2023-02-24T05:06:33;26.10;;;6.80;;
8139;SDS011;4111;50.972;7.072;2023-02-24T05:09:00;25.23;;;5.80;;
8139;SDS011;4111;50.972;7.072;2023-02-24T05:11:35;20.43;;;5.47;;
8139;SDS011;4111;50.972;7.072;2023-02-24T05:14:03;20.90;;;5.70;;
8139;SDS011;4111;50.972;7.072;2023-02-24T05:16:29;19.90;;;5.13;;
8139;SDS011;4111;50.972;7.072;2023-02-24T05:18:56;17.77;;;4.73;;
8139;SDS011;4111;50.972;7.072;2023-02-24T05:21:41;21.97;;;5.43;;
8139;SDS011;4111;50.972;7.072;2023-02-24T05:24:07;20.40;;;5.10;;
8139;SDS011;4111;50.972;7.072;2023-02-24T05:26:37;14.97;;;4.43;;
8139;SDS011;4111;50.972;7.072;2023-02-24T05:29:07;23.23;;;4.90;;
8139;SDS011;4111;50.972;7.072;2023-02-24T05:31:34;15.23;;;5.07;;
8139;SDS011;4111;50.972;7.072;2023-02-24T05:34:03;16.73;;;4.30;;
8139;SDS011;4111;50.972;7.072;2023-02-24T05:36:33;23.40;;;5.10;;
8139;SDS011;4111;50.972;7.072;2023-02-24T05:39:02;19.30;;;4.93;;
8139;SDS011;4111;50.972;7.072;2023-02-24T05:41:33;13.67;;;5.07;;
8139;SDS011;4111;50.972;7.072;2023-02-24T05:44:04;20.23;;;4.57;;
8139;SDS011;4111;50.972;7.072;2023-02-24T05:46:37;16.77;;;4.73;;
8139;SDS011;4111;50.972;7.072;2023-02-24T05:49:06;14.10;;;4.53;;
8139;SDS011;4111;50.972;7.072;2023-02-24T05:51:39;19.23;;;5.00;;
8139;SDS011;4111;50.972;7.072;2023-02-24T05:54:09;14.53;;;3.83;;
8139;SDS011;4111;50.972;7.072;2023-02-24T05:56:39;12.63;;;4.17;;
8139;SDS011;4111;50.972;7.072;2023-02-24T05:59:10;21.73;;;4.27;;
8139;SDS011;4111;50.972;7.072;2023-02-24T06:01:39;15.50;;;4.30;;
8139;SDS011;4111;50.972;7.072;2023-02-24T06:04:07;17.47;;;4.50;;
8139;SDS011;4111;50.972;7.072;2023-02-24T06:06:35;11.93;;;4.07;;
8139;SDS011;4111;50.972;7.072;2023-02-24T06:09:04;17.57;;;4.33;;
8139;SDS011;4111;50.972;7.072;2023-02-24T06:11:38;18.43;;;4.53;;
8139;SDS011;4111;50.972;7.072;2023-02-24T06:14:06;25.20;;;4.93;;
8139;SDS011;4111;50.972;7.072;2023-02-24T06:16:35;16.13;;;4.23;;
8139;SDS011;4111;50.972;7.072;2023-02-24T06:19:03;13.83;;;4.53;;
8139;SDS011;4111;50.972;7.072;2023-02-24T06:21:36;20.00;;;4.90;;
8139;SDS011;4111;50.972;7.072;2023-02-24T06:24:15;14.67;;;4.30;;
8139;SDS011;4111;50.972;7.072;2023-02-24T06:26:43;17.87;;;5.20;;
8139;SDS011;4111;50.972;7.072;2023-02-24T06:29:14;15.53;;;4.83;;
8139;SDS011;4111;50.972;7.072;2023-02-24T06:31:42;19.60;;;4.57;;
8139;SDS011;4111;50.972;7.072;2023-02-24T06:34:10;16.87;;;4.40;;
8139;SDS011;4111;50.972;7.072;2023-02-24T06:36:38;16.93;;;4.67;;
8139;SDS011;4111;50.972;7.072;2023-02-24T06:39:04;20.23;;;5.37;;
8139;SDS011;4111;50.972;7.072;2023-02-24T06:41:34;17.93;;;5.47;;
8139;SDS011;4111;50.972;7.072;2023-02-24T06:44:03;18.33;;;5.53;;
8139;SDS011;4111;50.972;7.072;2023-02-24T06:46:30;26.17;;;5.27;;
8139;SDS011;4111;50.972;7.072;2023-02-24T06:48:56;18.43;;;5.40;;
8139;SDS011;4111;50.972;7.072;2023-02-24T06:51:23;13.70;;;5.10;;
8139;SDS011;4111;50.972;7.072;2023-02-24T06:53:49;12.83;;;4.93;;
8139;SDS011;4111;50.972;7.072;2023-02-24T06:56:17;19.07;;;5.10;;
8139;SDS011;4111;50.972;7.072;2023-02-24T06:58:45;17.13;;;5.37;;
8139;SDS011;4111;50.972;7.072;2023-02-24T07:01:17;14.27;;;4.40;;
8139;SDS011;4111;50.972;7.072;2023-02-24T07:03:46;13.90;;;5.80;;
8139;SDS011;4111;50.972;7.072;2023-02-24T07:06:29;16.63;;;6.10;;
8139;SDS011;4111;50.972;7.072;2023-02-24T07:09:00;27.43;;;6.30;;
8139;SDS011;4111;50.972;7.072;2023-02-24T07:11:30;17.50;;;5.83;;
8139;SDS011;4111;50.972;7.072;2023-02-24T07:13:57;20.63;;;5.30;;
8139;SDS011;4111;50.972;7.072;2023-02-24T07:16:24;26.57;;;6.23;;
8139;SDS011;4111;50.972;7.072;2023-02-24T07:18:54;18.43;;;5.53;;
8139;SDS011;4111;50.972;7.072;2023-02-24T07:21:25;18.53;;;4.90;;
8139;SDS011;4111;50.972;7.072;2023-02-24T07:23:55;16.33;;;5.20;;
8139;SDS011;4111;50.972;7.072;2023-02-24T07:26:25;13.97;;;4.77;;
8139;SDS011;4111;50.972;7.072;2023-02-24T07:28:53;17.97;;;4.87;;
8139;SDS011;4111;50.972;7.072;2023-02-24T07:31:20;22.33;;;5.63;;
8139;SDS011;4111;50.972;7.072;2023-02-24T07:33:52;10.87;;;4.00;;
8139;SDS011;4111;50.972;7.072;2023-02-24T07:36:21;13.37;;;4.30;;
8139;SDS011;4111;50.972;7.072;2023-02-24T07:38:52;19.47;;;4.67;;
8139;SDS011;4111;50.972;7.072;2023-02-24T07:41:20;18.80;;;4.17;;
8139;SDS011;4111;50.972;7.072;2023-02-24T07:43:48;18.97;;;3.97;;
8139;SDS011;4111;50.972;7.072;2023-02-24T07:46:17;22.73;;;4.50;;
8139;SDS011;4111;50.972;7.072;2023-02-24T07:48:46;16.97;;;4.10;;
8139;SDS011;4111;50.972;7.072;2023-02-24T07:51:13;16.80;;;3.83;;
8139;SDS011;4111;50.972;7.072;2023-02-24T07:53:42;14.37;;;4.03;;
8139;SDS011;4111;50.972;7.072;2023-02-24T07:56:09;13.23;;;3.63;;
8139;SDS011;4111;50.972;7.072;2023-02-24T07:58:39;12.27;;;3.50;;
8139;SDS011;4111;50.972;7.072;2023-02-24T08:01:07;7.80;;;2.93;;
8139;SDS011;4111;50.972;7.072;2023-02-24T08:03:34;17.53;;;3.83;;
8139;SDS011;4111;50.972;7.072;2023-02-24T08:06:06;16.47;;;3.97;;
8139;SDS011;4111;50.972;7.072;2023-02-24T08:08:54;13.23;;;4.03;;
8139;SDS011;4111;50.972;7.072;2023-02-24T08:11:28;11.43;;;3.30;;
8139;SDS011;4111;50.972;7.072;2023-02-24T08:14:02;12.07;;;2.97;;
8139;SDS011;4111;50.972;7.072;2023-02-24T08:16:33;21.07;;;3.50;;
8139;SDS011;4111;50.972;7.072;2023-02-24T08:19:08;13.00;;;3.90;;
8139;SDS011;4111;50.972;7.072;2023-02-24T08:21:40;7.93;;;2.87;;
8139;SDS011;4111;50.972;7.072;2023-02-24T08:24:13;12.93;;;3.50;;
8139;SDS011;4111;50.972;7.072;2023-02-24T08:26:44;18.63;;;4.30;;
8139;SDS011;4111;50.972;7.072;2023-02-24T08:29:13;15.13;;;4.90;;
8139;SDS011;4111;50.972;7.072;2023-02-24T08:31:39;19.50;;;4.43;;
8139;SDS011;4111;50.972;7.072;2023-02-24T08:34:08;11.77;;;3.07;;
8139;SDS011;4111;50.972;7.072;2023-02-24T08:36:34;11.00;;;3.03;;
8139;SDS011;4111;50.972;7.072;2023-02-24T08:39:01;10.37;;;2.60;;
8139;SDS011;4111;50.972;7.072;2023-02-24T08:41:27;15.73;;;3.70;;
8139;SDS011;4111;50.972;7.072;2023-02-24T08:44:10;10.53;;;3.17;;
8139;SDS011;4111;50.972;7.072;2023-02-24T08:46:40;12.23;;;3.03;;
8139;SDS011;4111;50.972;7.072;2023-02-24T08:49:08;10.43;;;3.03;;
8139;SDS011;4111;50.972;7.072;2023-02-24T08:51:37;12.80;;;2.80;;
8139;SDS011;4111;50.972;7.072;2023-02-24T08:54:10;15.13;;;3.10;;
8139;SDS011;4111;50.972;7.072;2023-02-24T08:56:42;16.23;;;3.30;;
8139;SDS011;4111;50.972;7.072;2023-02-24T08:59:15;18.73;;;3.37;;
8139;SDS011;4111;50.972;7.072;2023-02-24T09:02:06;16.10;;;3.10;;
8139;SDS011;4111;50.972;7.072;2023-02-24T09:04:44;10.63;;;2.77;;
8139;SDS011;4111;50.972;7.072;2023-02-24T09:07:14;9.23;;;3.03;;
8139;SDS011;4111;50.972;7.072;2023-02-24T09:09:42;15.17;;;3.43;;
8139;SDS011;4111;50.972;7.072;2023-02-24T09:12:09;16.83;;;4.27;;
8139;SDS011;4111;50.972;7.072;2023-02-24T09:14:48;12.93;;;4.10;;
8139;SDS011;4111;50.972;7.072;2023-02-24T09:17:15;13.93;;;4.30;;
8139;SDS011;4111;50.972;7.072;2023-02-24T09:19:46;13.67;;;4.37;;
8139;SDS011;4111;50.972;7.072;2023-02-24T09:22:18;17.97;;;4.67;;
8139;SDS011;4111;50.972;7.072;2023-02-24T09:30:43;14.97;;;4.70;;
8139;SDS011;4111;50.972;7.072;2023-02-24T09:33:23;13.00;;;4.70;;
8139;SDS011;4111;50.972;7.072;2023-02-24T09:35:57;13.30;;;4.23;;
8139;SDS011;4111;50.972;7.072;2023-02-24T09:38:38;14.43;;;5.13;;
8139;SDS011;4111;50.972;7.072;2023-02-24T09:44:44;13.87;;;4.53;;
8139;SDS011;4111;50.972;7.072;2023-02-24T09:50:20;14.40;;;3.73;;
8139;SDS011;4111;50.972;7.072;2023-02-24T09:53:15;12.83;;;4.30;;
8139;SDS011;4111;50.972;7.072;2023-02-24T09:55:47;21.60;;;4.70;;
8139;SDS011;4111;50.972;7.072;2023-02-24T10:01:22;16.97;;;4.33;;
8139;SDS011;4111;50.972;7.072;2023-02-24T10:04:05;16.37;;;4.13;;
8139;SDS011;4111;50.972;7.072;2023-02-24T10:06:47;10.60;;;4.00;;
8139;SDS011;4111;50.972;7.072;2023-02-24T10:12:05;11.10;;;3.60;;
8139;SDS011;4111;50.972;7.072;2023-02-24T10:14:38;8.83;;;4.23;;
8139;SDS011;4111;50.972;7.072;2023-02-24T10:17:18;11.67;;;3.87;;
8139;SDS011;4111;50.972;7.072;2023-02-24T10:19:50;10.47;;;4.03;;
8139;SDS011;4111;50.972;7.072;2023-02-24T10:22:27;14.87;;;3.47;;
8139;SDS011;4111;50.972;7.072;2023-02-24T10:25:21;13.93;;;3.47;;
8139;SDS011;4111;50.972;7.072;2023-02-24T10:30:54;16.23;;;3.53;;
8139;SDS011;4111;50.972;7.072;2023-02-24T10:33:36;9.70;;;3.50;;
8139;SDS011;4111;50.972;7.072;2023-02-24T10:36:11;13.17;;;4.10;;
8139;SDS011;4111;50.972;7.072;2023-02-24T10:38:42;16.27;;;4.10;;
8139;SDS011;4111;50.972;7.072;2023-02-24T10:41:16;9.33;;;3.67;;
8139;SDS011;4111;50.972;7.072;2023-02-24T10:43:53;11.23;;;3.77;;
8139;SDS011;4111;50.972;7.072;2023-02-24T10:46:26;8.53;;;3.83;;
8139;SDS011;4111;50.972;7.072;2023-02-24T10:49:07;13.43;;;5.07;;
8139;SDS011;4111;50.972;7.072;2023-02-24T10:51:40;9.00;;;3.53;;
8139;SDS011;4111;50.972;7.072;2023-02-24T10:54:27;12.73;;;4.10;;
8139;SDS011;4111;50.972;7.072;2023-02-24T10:57:10;10.60;;;3.63;;
8139;SDS011;4111;50.972;7.072;2023-02-24T11:00:08;12.23;;;3.97;;
8139;SDS011;4111;50.972;7.072;2023-02-24T11:02:45;12.20;;;4.03;;
8139;SDS011;4111;50.972;7.072;2023-02-24T11:05:23;10.00;;;4.53;;
8139;SDS011;4111;50.972;7.072;2023-02-24T11:08:04;17.43;;;4.77;;
8139;SDS011;4111;50.972;7.072;2023-02-24T11:10:37;8.40;;;3.87;;
8139;SDS011;4111;50.972;7.072;2023-02-24T11:13:11;17.03;;;4.00;;
8139;SDS011;4111;50.972;7.072;2023-02-24T11:15:59;8.73;;;4.17;;
8139;SDS011;4111;50.972;7.072;2023-02-24T11:18:45;11.87;;;4.27;;
8139;SDS011;4111;50.972;7.072;2023-02-24T11:21:15;8.20;;;3.47;;
8139;SDS011;4111;50.972;7.072;2023-02-24T11:23:46;7.83;;;3.67;;
8139;SDS011;4111;50.972;7.072;2023-02-24T11:26:17;13.40;;;4.13;;
8139;SDS011;4111;50.972;7.072;2023-02-24T11:28:58;12.17;;;3.80;;
8139;SDS011;4111;50.972;7.072;2023-02-24T11:31:58;10.57;;;3.70;;
8139;SDS011;4111;50.972;7.072;2023-02-24T11:34:30;8.67;;;3.97;;
8139;SDS011;4111;50.972;7.072;2023-02-24T11:37:23;12.67;;;3.80;;
8139;SDS011;4111;50.972;7.072;2023-02-24T11:40:20;9.10;;;3.90;;
8139;SDS011;4111;50.972;7.072;2023-02-24T11:42:52;10.57;;;4.10;;
8139;SDS011;4111;50.972;7.072;2023-02-24T11:45:39;15.13;;;4.57;;
8139;SDS011;4111;50.972;7.072;2023-02-24T11:48:12;13.23;;;3.63;;
8139;SDS011;4111;50.972;7.072;2023-02-24T11:50:45;16.17;;;3.80;;
8139;SDS011;4111;50.972;7.072;2023-02-24T11:53:29;7.70;;;3.60;;
8139;SDS011;4111;50.972;7.072;2023-02-24T11:56:47;8.43;;;3.93;;
8139;SDS011;4111;50.972;7.072;2023-02-24T12:01:42;13.40;;;3.97;;
8139;SDS011;4111;50.972;7.072;2023-02-24T12:07:05;7.23;;;3.47;;
8139;SDS011;4111;50.972;7.072;2023-02-24T12:09:47;9.67;;;3.77;;
8139;SDS011;4111;50.972;7.072;2023-02-24T12:12:26;10.90;;;4.13;;
8139;SDS011;4111;50.972;7.072;2023-02-24T12:15:08;11.13;;;3.73;;
8139;SDS011;4111;50.972;7.072;2023-02-24T12:17:58;9.80;;;3.50;;
8139;SDS011;4111;50.972;7.072;2023-02-24T12:20:35;8.33;;;3.73;;
8139;SDS011;4111;50.972;7.072;2023-02-24T12:23:12;11.00;;;3.50;;
8139;SDS011;4111;50.972;7.072;2023-02-24T12:28:31;13.87;;;3.33;;
8139;SDS011;4111;50.972;7.072;2023-02-24T12:31:25;7.60;;;3.07;;
8139;SDS011;4111;50.972;7.072;2023-02-24T12:34:11;8.57;;;3.27;;
8139;SDS011;4111;50.972;7.072;2023-02-24T12:36:55;9.80;;;3.43;;
8139;SDS011;4111;50.972;7.072;2023-02-24T12:39:28;8.63;;;3.83;;
8139;SDS011;4111;50.972;7.072;2023-02-24T12:44:57;8.77;;;3.73;;
8139;SDS011;4111;50.972;7.072;2023-02-24T12:50:47;10.87;;;3.73;;
8139;SDS011;4111;50.972;7.072;2023-02-24T12:53:22;7.23;;;3.60;;
8139;SDS011;4111;50.972;7.072;2023-02-24T12:56:04;8.53;;;3.67;;
8139;SDS011;4111;50.972;7.072;2023-02-24T12:58:41;12.80;;;4.07;;
8139;SDS011;4111;50.972;7.072;2023-02-24T13:01:19;9.20;;;4.13;;
8139;SDS011;4111;50.972;7.072;2023-02-24T13:06:57;10.73;;;4.00;;
8139;SDS011;4111;50.972;7.072;2023-02-24T13:12:27;16.63;;;4.60;;
8139;SDS011;4111;50.972;7.072;2023-02-24T13:15:04;10.30;;;4.43;;
8139;SDS011;4111;50.972;7.072;2023-02-24T13:17:47;14.37;;;4.87;;
8139;SDS011;4111;50.972;7.072;2023-02-24T13:20:33;12.50;;;4.50;;
8139;SDS011;4111;50.972;7.072;2023-02-24T13:23:02;13.70;;;5.03;;
8139;SDS011;4111;50.972;7.072;2023-02-24T13:25:49;12.40;;;4.40;;
8139;SDS011;4111;50.972;7.072;2023-02-24T13:30:58;10.23;;;4.50;;
8139;SDS011;4111;50.972;7.072;2023-02-24T13:33:33;11.30;;;4.77;;
8139;SDS011;4111;50.972;7.072;2023-02-24T13:36:11;13.90;;;4.80;;
8139;SDS011;4111;50.972;7.072;2023-02-24T13:38:44;11.57;;;5.10;;
8139;SDS011;4111;50.972;7.072;2023-02-24T13:44:35;8.47;;;5.63;;
8139;SDS011;4111;50.972;7.072;2023-02-24T13:49:55;14.33;;;5.10;;
8139;SDS011;4111;50.972;7.072;2023-02-24T13:52:44;10.60;;;5.30;;
8139;SDS011;4111;50.972;7.072;2023-02-24T13:55:20;10.37;;;4.80;;
8139;SDS011;4111;50.972;7.072;2023-02-24T14:00:37;7.63;;;4.43;;
8139;SDS011;4111;50.972;7.072;2023-02-24T14:03:19;12.57;;;4.70;;
8139;SDS011;4111;50.972;7.072;2023-02-24T14:05:49;12.80;;;4.53;;
8139;SDS011;4111;50.972;7.072;2023-02-24T14:08:20;13.03;;;4.40;;
8139;SDS011;4111;50.972;7.072;2023-02-24T14:10:53;15.03;;;4.20;;
8139;SDS011;4111;50.972;7.072;2023-02-24T14:13:23;9.63;;;3.97;;
8139;SDS011;4111;50.972;7.072;2023-02-24T14:15:53;9.97;;;3.70;;
8139;SDS011;4111;50.972;7.072;2023-02-24T14:18:22;11.70;;;4.70;;
8139;SDS011;4111;50.972;7.072;2023-02-24T14:20:53;6.70;;;4.00;;
8139;SDS011;4111;50.972;7.072;2023-02-24T14:23:23;10.03;;;4.10;;
8139;SDS011;4111;50.972;7.072;2023-02-24T14:25:58;12.17;;;4.80;;
8139;SDS011;4111;50.972;7.072;2023-02-24T14:28:31;11.20;;;4.40;;
8139;SDS011;4111;50.972;7.072;2023-02-24T14:31:08;10.53;;;4.60;;
8139;SDS011;4111;50.972;7.072;2023-02-24T14:33:38;9.30;;;4.90;;
8139;SDS011;4111;50.972;7.072;2023-02-24T14:36:06;13.53;;;4.20;;
8139;SDS011;4111;50.972;7.072;2023-02-24T14:38:42;10.00;;;4.57;;
8139;SDS011;4111;50.972;7.072;2023-02-24T14:41:20;14.77;;;5.40;;
8139;SDS011;4111;50.972;7.072;2023-02-24T14:43:49;15.73;;;4.80;;
8139;SDS011;4111;50.972;7.072;2023-02-24T14:46:17;20.43;;;5.27;;
8139;SDS011;4111;50.972;7.072;2023-02-24T14:48:44;18.63;;;5.53;;
8139;SDS011;4111;50.972;7.072;2023-02-24T14:51:17;14.77;;;5.30;;
8139;SDS011;4111;50.972;7.072;2023-02-24T14:54:13;18.40;;;5.60;;
8139;SDS011;4111;50.972;7.072;2023-02-24T14:56:45;17.90;;;5.47;;
8139;SDS011;4111;50.972;7.072;2023-02-24T14:59:22;20.37;;;5.53;;
8139;SDS011;4111;50.972;7.072;2023-02-24T15:01:56;11.87;;;4.43;;
8139;SDS011;4111;50.972;7.072;2023-02-24T15:06:59;11.27;;;4.50;;
8139;SDS011;4111;50.972;7.072;2023-02-24T15:09:32;12.23;;;4.83;;
8139;SDS011;4111;50.972;7.072;2023-02-24T15:12:11;12.60;;;4.53;;
8139;SDS011;4111;50.972;7.072;2023-02-24T15:14:47;15.30;;;4.63;;
8139;SDS011;4111;50.972;7.072;2023-02-24T15:17:18;11.23;;;4.57;;
8139;SDS011;4111;50.972;7.072;2023-02-24T15:19:46;8.83;;;4.20;;
8139;SDS011;4111;50.972;7.072;2023-02-24T15:22:20;16.00;;;5.43;;
8139;SDS011;4111;50.972;7.072;2023-02-24T15:24:47;9.97;;;4.83;;
8139;SDS011;4111;50.972;7.072;2023-02-24T15:29:41;14.47;;;4.40;;
8139;SDS011;4111;50.972;7.072;2023-02-24T15:32:18;16.07;;;4.63;;
8139;SDS011;4111;50.972;7.072;2023-02-24T15:34:48;13.17;;;5.20;;
8139;SDS011;4111;50.972;7.072;2023-02-24T15:37:22;11.97;;;4.57;;
8139;SDS011;4111;50.972;7.072;2023-02-24T15:39:59;13.07;;;5.03;;
8139;SDS011;4111;50.972;7.072;2023-02-24T15:42:31;12.70;;;5.10;;
8139;SDS011;4111;50.972;7.072;2023-02-24T15:45:03;9.43;;;4.50;;
8139;SDS011;4111;50.972;7.072;2023-02-24T15:47:42;9.63;;;4.23;;
8139;SDS011;4111;50.972;7.072;2023-02-24T15:50:10;13.83;;;5.07;;
8139;SDS011;4111;50.972;7.072;2023-02-24T15:52:38;13.23;;;4.83;;
8139;SDS011;4111;50.972;7.072;2023-02-24T15:55:05;13.63;;;4.90;;
8139;SDS011;4111;50.972;7.072;2023-02-24T15:57:35;11.17;;;5.30;;
8139;SDS011;4111;50.972;7.072;2023-02-24T16:00:02;12.87;;;4.57;;
8139;SDS011;4111;50.972;7.072;2023-02-24T16:02:38;14.90;;;5.20;;
8139;SDS011;4111;50.972;7.072;2023-02-24T16:05:06;11.03;;;4.70;;
8139;SDS011;4111;50.972;7.072;2023-02-24T16:07:35;15.13;;;5.20;;
8139;SDS011;4111;50.972;7.072;2023-02-24T16:10:03;10.87;;;4.80;;
8139;SDS011;4111;50.972;7.072;2023-02-24T16:15:04;11.63;;;4.20;;
8139;SDS011;4111;50.972;7.072;2023-02-24T16:17:36;17.30;;;5.87;;
8139;SDS011;4111;50.972;7.072;2023-02-24T16:20:06;9.83;;;5.30;;
8139;SDS011;4111;50.972;7.072;2023-02-24T16:22:37;11.37;;;4.90;;
8139;SDS011;4111;50.972;7.072;2023-02-24T16:25:04;11.67;;;4.57;;
8139;SDS011;4111;50.972;7.072;2023-02-24T16:27:31;13.43;;;5.50;;
8139;SDS011;4111;50.972;7.072;2023-02-24T16:29:58;10.77;;;4.47;;
8139;SDS011;4111;50.972;7.072;2023-02-24T16:32:25;10.77;;;4.40;;
8139;SDS011;4111;50.972;7.072;2023-02-24T16:34:52;9.37;;;5.00;;
8139;SDS011;4111;50.972;7.072;2023-02-24T16:37:21;10.80;;;5.93;;
8139;SDS011;4111;50.972;7.072;2023-02-24T16:39:49;12.33;;;5.77;;
8139;SDS011;4111;50.972;7.072;2023-02-24T16:42:16;12.80;;;6.53;;
8139;SDS011;4111;50.972;7.072;2023-02-24T16:44:44;17.40;;;6.77;;
8139;SDS011;4111;50.972;7.072;2023-02-24T16:47:18;15.90;;;6.60;;
8139;SDS011;4111;50.972;7.072;2023-02-24T16:49:47;20.53;;;5.90;;
8139;SDS011;4111;50.972;7.072;2023-02-24T16:52:15;14.87;;;6.20;;
8139;SDS011;4111;50.972;7.072;2023-02-24T16:54:45;14.53;;;6.33;;
8139;SDS011;4111;50.972;7.072;2023-02-24T16:57:13;11.83;;;5.83;;
8139;SDS011;4111;50.972;7.072;2023-02-24T16:59:40;14.47;;;5.87;;
8139;SDS011;4111;50.972;7.072;2023-02-24T17:02:10;12.20;;;6.87;;
8139;SDS011;4111;50.972;7.072;2023-02-24T17:04:43;11.03;;;6.47;;
8139;SDS011;4111;50.972;7.072;2023-02-24T17:07:10;13.80;;;6.87;;
8139;SDS011;4111;50.972;7.072;2023-02-24T17:09:36;11.17;;;6.57;;
8139;SDS011;4111;50.972;7.072;2023-02-24T17:12:03;9.17;;;6.33;;